Quick Links (Output Below):   Max & Min Temps   /   Climate Reports   /   Zone Forecasts
River Forecasts   /   Forestry Forecasts   /   Aviation Forecasts   /   Radars   /   Features

Terminal Aerodrome Forecast (Hot Springs)

Pick a Site:
Arkadelphia | El Dorado | Fayetteville | Fort Smith | Harrison | Highfill | Hot Springs | Jonesboro
Little Rock | Monticello | Mountain Home | Pine Bluff | Texarkana
 Forecast 

KHOT 300538Z 3006/0106 26004KT P6SM SCT120
     FM300900 26003KT P6SM SCT250
     FM301400 27007KT P6SM SCT050
     FM010100 24003KT P6SM SCT250=


 Latest METARs (Observations) 
How to Decode METARs
08Z KHOT 300753Z AUTO 00000KT 10SM SCT055 23/20 A2995 RMK AO2 SLP132
         T02330200
         
07Z KHOT 300653Z AUTO 25003KT 10SM BKN055 23/20 A2995 RMK AO2 SLP133
         T02330200
         
06Z KHOT 300553Z AUTO 27003KT 10SM CLR 24/19 A2995 RMK AO2 SLP133
         T02390194 10306 20228 403330211 50004 $
         
05Z KHOT 300453Z AUTO 25004KT 10SM FEW065 24/19 A2995 RMK AO2 SLP134
         T02390189
         
04Z KHOT 300353Z AUTO 31004KT 10SM CLR 24/19 A2995 RMK AO2 SLP136
         T02440194
         
03Z KHOT 300253Z AUTO 30004KT 10SM CLR 25/19 A2994 RMK AO2 LTG DSNT S
         SLP130 T02500189 53012
         
02Z KHOT 300153Z AUTO 25009G17KT 10SM FEW085 FEW110 27/21 A2991 RMK
         AO2 LTG DSNT S-W SLP122 T02670211
         
01Z KHOT 300053Z AUTO 21005KT 10SM VCTS FEW041 FEW065 SCT095 29/23
         A2990 RMK AO2 LTG DSNT SW AND W SLP118 T02940233
         
00Z KHOT 292353Z AUTO 19005KT 10SM VCTS FEW060 SCT075 31/24 A2990 RMK
         AO2 SLP118 T03060239 10333 20306 55005
         
***** Today's Observations (Above) *****


23Z KHOT 292253Z AUTO 20003KT 10SM FEW055 32/23 A2990 RMK AO2 LTG DSNT
         W SLP117 T03220233
         
***** Yesterday's Observations (Above) *****


Back to Main Page
http://www.srh.noaa.gov/lzk/qfcst.php

USA.gov is the U.S. government's official web portal to all federal, state and local government web resources and services.